Time;durP1;ratioP1;P1;durP2;ratioP2;P2;SDS_P1;SDS_P2;PMS_P1;PMS_P2;Temp;Humidity;BMP_temperature;BMP_pressure;BME280_temperature;BME280_humidity;BME280_pressure;Samples;Min_cycle;Max_cycle;Signal;HPM_P1;HPM_P2
2023/01/23 00:00:48;;;;;;;0.50;0.40;;;2.70;99.90;;;;;;4938191;29;20496;-75
2023/01/23 00:03:17;;;;;;;0.50;0.33;;;2.70;99.90;;;;;;4940142;29;20495;-75
2023/01/23 00:05:45;;;;;;;1.70;1.13;;;2.70;99.90;;;;;;4937164;29;20452;-75
2023/01/23 00:08:14;;;;;;;0.50;0.10;;;2.70;99.90;;;;;;4939258;29;20459;-74
2023/01/23 00:10:42;;;;;;;0.50;0.30;;;2.70;99.90;;;;;;4938843;29;20471;-75
2023/01/23 00:13:10;;;;;;;0.90;0.77;;;2.70;99.90;;;;;;4938779;29;20456;-75
2023/01/23 00:15:39;;;;;;;1.17;0.90;;;2.70;99.90;;;;;;4942506;29;20455;-75
2023/01/23 00:18:07;;;;;;;0.50;0.10;;;2.60;99.90;;;;;;4940967;29;21018;-74
2023/01/23 00:20:37;;;;;;;0.63;0.63;;;2.60;99.90;;;;;;4939850;29;20855;-75
2023/01/23 00:23:05;;;;;;;0.97;0.97;;;2.70;99.90;;;;;;4939265;29;20498;-75
2023/01/23 00:25:35;;;;;;;3.33;3.10;;;2.60;99.90;;;;;;4938939;29;20439;-74
2023/01/23 00:28:03;;;;;;;0.50;0.10;;;2.70;99.90;;;;;;4946607;29;20448;-74
2023/01/23 00:30:31;;;;;;;1.27;0.50;;;2.70;99.90;;;;;;4952782;29;20527;-73
2023/01/23 00:32:59;;;;;;;0.50;0.10;;;2.80;99.90;;;;;;4947539;29;20448;-75
2023/01/23 00:35:27;;;;;;;1.27;1.17;;;2.80;99.90;;;;;;4939993;29;20455;-75
2023/01/23 00:37:56;;;;;;;0.50;0.20;;;2.80;99.90;;;;;;4931602;29;20462;-74
2023/01/23 00:40:24;;;;;;;0.60;0.40;;;2.80;99.90;;;;;;4924206;29;20486;-73
2023/01/23 00:42:53;;;;;;;0.50;0.10;;;2.70;99.90;;;;;;4934417;29;20499;-76
2023/01/23 00:45:21;;;;;;;0.50;0.10;;;2.70;99.90;;;;;;4928113;29;20458;-73
2023/01/23 00:47:49;;;;;;;0.50;0.20;;;2.70;99.90;;;;;;4937783;29;20506;-74
2023/01/23 00:50:17;;;;;;;0.70;0.70;;;2.80;99.90;;;;;;4938115;29;20472;-74
2023/01/23 00:52:45;;;;;;;0.80;0.73;;;2.80;99.90;;;;;;4941030;29;20450;-73
2023/01/23 00:55:13;;;;;;;0.70;0.40;;;2.80;99.90;;;;;;4940903;29;20452;-73
2023/01/23 00:57:41;;;;;;;0.90;0.53;;;2.70;99.90;;;;;;4940209;29;20449;-73
2023/01/23 05:02:55;;;;;;;0.60;0.40;;;2.70;99.90;;;;;;4962988;23;20535;-73
2023/01/23 05:05:23;;;;;;;4.57;3.20;;;2.60;99.90;;;;;;4957169;29;20442;-74
2023/01/23 05:07:51;;;;;;;0.50;0.10;;;2.50;99.90;;;;;;4956545;29;20779;-74
2023/01/23 05:10:20;;;;;;;0.50;0.37;;;2.50;99.90;;;;;;4956793;29;20458;-75
2023/01/23 05:12:48;;;;;;;0.50;0.20;;;2.50;99.90;;;;;;4937805;29;20475;-73
2023/01/23 05:15:16;;;;;;;0.50;0.20;;;2.50;99.90;;;;;;4937663;29;20441;-75
2023/01/23 05:17:44;;;;;;;0.97;0.97;;;2.50;99.90;;;;;;4936949;29;20543;-75
2023/01/23 05:20:14;;;;;;;3.70;3.50;;;2.50;99.90;;;;;;4936891;29;20467;-75
2023/01/23 05:22:51;;;;;;;0.70;0.47;;;2.50;99.90;;;;;;4937410;29;20464;-75
2023/01/23 05:25:20;;;;;;;0.80;0.60;;;2.50;99.90;;;;;;4937483;29;20564;-75
2023/01/23 05:27:48;;;;;;;0.83;0.83;;;2.50;99.90;;;;;;4937998;29;20543;-75
2023/01/23 05:30:17;;;;;;;3.50;3.20;;;2.50;99.90;;;;;;4939419;29;20556;-75
2023/01/23 05:32:46;;;;;;;1.00;0.37;;;2.50;99.90;;;;;;4932777;29;20499;-74
2023/01/23 05:35:15;;;;;;;8.40;7.73;;;2.50;99.90;;;;;;4937751;29;20501;-74
2023/01/23 05:37:43;;;;;;;0.50;0.10;;;2.50;99.90;;;;;;4936527;29;20452;-75
2023/01/23 05:40:13;;;;;;;0.50;0.20;;;2.50;99.90;;;;;;4937112;29;20463;-74
2023/01/23 05:42:41;;;;;;;1.00;0.83;;;2.60;99.90;;;;;;4938106;29;20484;-75
2023/01/23 05:45:10;;;;;;;1.50;1.40;;;2.60;99.90;;;;;;4938328;29;20494;-74
2023/01/23 05:47:38;;;;;;;0.50;0.10;;;2.60;99.90;;;;;;4954379;29;20455;-73
2023/01/23 05:50:07;;;;;;;0.50;0.10;;;2.60;99.90;;;;;;4953325;29;20456;-75
2023/01/23 05:52:36;;;;;;;0.50;0.20;;;2.60;99.90;;;;;;4952964;29;20468;-74
2023/01/23 05:55:05;;;;;;;0.50;0.10;;;2.60;99.90;;;;;;4940129;29;20971;-73
2023/01/23 05:57:34;;;;;;;1.80;1.70;;;2.60;99.90;;;;;;4939281;29;20562;-74
2023/01/23 06:00:02;;;;;;;0.50;0.10;;;2.70;99.90;;;;;;4949179;29;20494;-74
2023/01/23 06:02:29;;;;;;;1.07;1.07;;;2.70;99.90;;;;;;4940633;29;20482;-75
2023/01/23 06:04:57;;;;;;;0.50;0.20;;;2.70;99.90;;;;;;4936392;29;20531;-75
2023/01/23 06:07:25;;;;;;;0.60;0.40;;;2.80;99.90;;;;;;4936795;29;20553;-73
2023/01/23 06:09:54;;;;;;;0.80;0.50;;;2.70;99.90;;;;;;4936162;29;20455;-72
2023/01/23 06:12:22;;;;;;;0.50;0.10;;;2.70;99.90;;;;;;4943116;29;20821;-74
2023/01/23 06:14:50;;;;;;;0.50;0.10;;;2.70;99.90;;;;;;4940371;29;20452;-75
2023/01/23 06:17:18;;;;;;;0.50;0.10;;;2.70;99.90;;;;;;4941608;29;20447;-75
2023/01/23 06:19:47;;;;;;;0.50;0.10;;;2.70;99.90;;;;;;4938572;29;20857;-74
2023/01/23 06:22:15;;;;;;;0.50;0.10;;;2.70;99.90;;;;;;4938055;29;21049;-76
2023/01/23 06:24:42;;;;;;;3.50;0.60;;;2.70;99.90;;;;;;4938118;29;20973;-73
2023/01/23 06:27:12;;;;;;;0.70;0.30;;;2.70;99.90;;;;;;4936797;29;20455;-75
2023/01/23 06:29:40;;;;;;;0.60;0.40;;;2.70;99.90;;;;;;4937396;29;21071;-76
2023/01/23 06:32:10;;;;;;;1.10;0.30;;;2.70;99.90;;;;;;4935149;29;20467;-76
2023/01/23 06:34:38;;;;;;;0.50;0.10;;;2.70;99.90;;;;;;4929417;29;20448;-75
2023/01/23 06:37:06;;;;;;;0.50;0.10;;;2.70;99.90;;;;;;4933934;29;20448;-75
2023/01/23 06:39:34;;;;;;;0.60;0.20;;;2.70;99.90;;;;;;4937978;29;20456;-75
2023/01/23 06:42:04;;;;;;;0.87;0.87;;;2.70;99.90;;;;;;4938154;29;20474;-75
2023/01/23 06:44:33;;;;;;;0.50;0.23;;;2.70;99.90;;;;;;4937691;29;20491;-75
2023/01/23 06:47:01;;;;;;;0.50;0.10;;;2.70;99.90;;;;;;4936259;29;20455;-74
2023/01/23 06:49:29;;;;;;;0.50;0.10;;;2.80;99.90;;;;;;4932608;29;20448;-75
2023/01/23 06:51:57;;;;;;;0.50;0.10;;;2.80;99.90;;;;;;4933337;29;20962;-75
2023/01/23 06:54:25;;;;;;;0.50;0.10;;;2.80;99.90;;;;;;4928207;29;20464;-75
2023/01/23 06:56:53;;;;;;;0.50;0.10;;;2.90;99.90;;;;;;4929516;29;20454;-75
2023/01/23 06:59:20;;;;;;;0.60;0.30;;;2.90;99.90;;;;;;4928275;29;20442;-73
2023/01/23 07:01:50;;;;;;;0.50;0.10;;;2.90;99.90;;;;;;4926249;29;20492;-75
2023/01/23 07:04:18;;;;;;;0.70;0.40;;;2.90;99.90;;;;;;4935813;29;20535;-75
2023/01/23 07:06:45;;;;;;;0.50;0.10;;;2.90;99.90;;;;;;4936110;29;20465;-75
2023/01/23 07:09:13;;;;;;;1.07;0.97;;;3.00;99.90;;;;;;4931526;29;20685;-74
2023/01/23 07:11:41;;;;;;;0.50;0.10;;;2.90;99.90;;;;;;4935237;29;20996;-72
2023/01/23 07:14:09;;;;;;;0.50;0.10;;;2.90;99.90;;;;;;4936570;29;20466;-75
2023/01/23 07:16:37;;;;;;;0.50;0.10;;;2.90;99.90;;;;;;4939273;29;20448;-76
2023/01/23 07:19:06;;;;;;;2.20;2.00;;;2.90;99.90;;;;;;4938242;29;20949;-75
2023/01/23 07:21:34;;;;;;;0.50;0.10;;;2.90;99.90;;;;;;4938859;29;20492;-75
2023/01/23 07:24:02;;;;;;;0.50;0.10;;;2.90;99.90;;;;;;4942112;29;20458;-75
2023/01/23 07:26:30;;;;;;;0.60;0.30;;;2.90;99.90;;;;;;4941344;29;20448;-75
2023/01/23 07:28:58;;;;;;;0.50;0.10;;;2.80;99.90;;;;;;4940508;29;20532;-74
2023/01/23 07:31:26;;;;;;;0.93;0.80;;;2.80;99.90;;;;;;4941125;29;20466;-75
2023/01/23 07:33:54;;;;;;;0.50;0.20;;;2.80;99.90;;;;;;4941132;29;20464;-75
2023/01/23 07:36:23;;;;;;;0.50;0.10;;;2.70;99.90;;;;;;4941368;29;20448;-75
2023/01/23 07:38:51;;;;;;;0.50;0.10;;;2.70;99.90;;;;;;4941390;29;20452;-74
2023/01/23 07:41:19;;;;;;;0.50;0.10;;;2.70;99.90;;;;;;4940747;29;20994;-75
2023/01/23 07:43:46;;;;;;;0.50;0.10;;;2.60;99.90;;;;;;4941399;29;20456;-75
2023/01/23 07:46:14;;;;;;;0.50;0.10;;;2.60;99.90;;;;;;4941506;29;20485;-74
2023/01/23 07:48:42;;;;;;;1.50;1.40;;;2.60;99.90;;;;;;4942088;29;20444;-75
2023/01/23 07:51:10;;;;;;;0.50;0.10;;;2.60;99.90;;;;;;4941438;29;20471;-73
2023/01/23 07:53:40;;;;;;;0.50;0.10;;;2.60;99.90;;;;;;4942078;29;20522;-75
2023/01/23 07:56:08;;;;;;;0.50;0.10;;;2.60;99.90;;;;;;4942783;29;20464;-73
2023/01/23 07:58:36;;;;;;;0.50;0.10;;;2.60;99.90;;;;;;4942552;29;20562;-76
2023/01/23 08:01:08;;;;;;;0.50;0.10;;;2.70;99.90;;;;;;4945529;29;20480;-75
2023/01/23 08:03:36;;;;;;;0.50;0.10;;;2.70;99.90;;;;;;4948124;29;20454;-75
2023/01/23 08:06:04;;;;;;;0.50;0.10;;;2.70;99.90;;;;;;4951353;29;20482;-74
2023/01/23 08:08:32;;;;;;;0.60;0.43;;;2.80;99.90;;;;;;4947838;29;20454;-76
2023/01/23 08:11:05;;;;;;;0.80;0.60;;;2.80;99.90;;;;;;4948809;29;20484;-76
2023/01/23 08:13:33;;;;;;;0.87;0.47;;;2.80;99.90;;;;;;4947826;29;20446;-75
2023/01/23 08:16:01;;;;;;;0.70;0.67;;;2.80;99.90;;;;;;4948680;29;20468;-76
2023/01/23 08:18:30;;;;;;;0.50;0.10;;;2.70;99.90;;;;;;4942036;29;20457;-75
2023/01/23 08:21:00;;;;;;;1.37;1.27;;;2.80;99.90;;;;;;4941989;29;20476;-75
2023/01/23 08:23:32;;;;;;;0.50;0.20;;;2.80;99.90;;;;;;4939718;29;20813;-75
2023/01/23 08:26:01;;;;;;;1.87;0.57;;;2.80;99.90;;;;;;4943036;29;21030;-75
2023/01/23 08:28:31;;;;;;;0.70;0.33;;;2.80;99.90;;;;;;4941003;29;20457;-75
2023/01/23 08:31:00;;;;;;;1.23;0.27;;;2.80;99.90;;;;;;4939881;29;20518;-75
2023/01/23 08:33:28;;;;;;;0.83;0.53;;;2.80;99.90;;;;;;4938684;29;20899;-75
2023/01/23 08:35:58;;;;;;;0.73;0.57;;;2.90;99.90;;;;;;4940128;29;20442;-75
2023/01/23 08:38:26;;;;;;;0.50;0.20;;;3.00;99.90;;;;;;4939968;29;20464;-75
2023/01/23 08:40:57;;;;;;;1.00;0.40;;;3.10;99.90;;;;;;4947958;29;20578;-74
2023/01/23 08:43:25;;;;;;;0.50;0.10;;;3.10;99.90;;;;;;4950219;29;20448;-74
2023/01/23 08:45:56;;;;;;;0.50;0.10;;;3.10;99.90;;;;;;4941878;29;20516;-75
2023/01/23 08:48:26;;;;;;;0.90;0.70;;;3.20;99.90;;;;;;4939556;29;20448;-75
2023/01/23 08:51:00;;;;;;;0.50;0.10;;;3.30;99.90;;;;;;4942331;29;20842;-75
2023/01/23 08:53:29;;;;;;;0.50;0.10;;;3.30;99.90;;;;;;4944938;29;20464;-75
2023/01/23 08:56:00;;;;;;;0.50;0.10;;;3.40;99.90;;;;;;4944786;29;20479;-75
2023/01/23 08:58:29;;;;;;;0.50;0.20;;;3.40;99.90;;;;;;4945384;29;20452;-74
2023/01/23 09:00:58;;;;;;;0.50;0.10;;;3.50;99.90;;;;;;4944671;29;20483;-74
2023/01/23 09:03:27;;;;;;;0.50;0.10;;;3.50;99.90;;;;;;4945171;29;20432;-74
2023/01/23 09:05:55;;;;;;;0.50;0.10;;;3.50;99.90;;;;;;4947158;29;20486;-74
2023/01/23 09:08:23;;;;;;;0.50;0.20;;;3.50;99.90;;;;;;4942072;29;20464;-75
2023/01/23 09:10:50;;;;;;;0.53;0.27;;;3.50;99.90;;;;;;4942250;29;20830;-74
2023/01/23 09:13:18;;;;;;;0.50;0.10;;;3.60;99.90;;;;;;4946014;29;20463;-75
2023/01/23 09:15:47;;;;;;;0.50;0.10;;;3.50;99.90;;;;;;4943059;29;20447;-75
2023/01/23 09:18:17;;;;;;;0.50;0.10;;;3.50;99.90;;;;;;4940527;29;20449;-75
2023/01/23 09:20:45;;;;;;;1.03;0.93;;;3.50;99.90;;;;;;4930031;29;20450;-75
2023/01/23 09:23:12;;;;;;;0.50;0.10;;;3.50;99.90;;;;;;4940034;29;20830;-75
2023/01/23 09:25:41;;;;;;;0.50;0.20;;;3.40;99.90;;;;;;4939588;29;20468;-74
2023/01/23 09:28:08;;;;;;;0.50;0.10;;;3.40;99.90;;;;;;4940408;29;20448;-75
2023/01/23 09:30:36;;;;;;;0.50;0.10;;;3.50;99.90;;;;;;4939803;29;20456;-75
2023/01/23 09:33:05;;;;;;;0.50;0.20;;;3.50;99.90;;;;;;4940156;29;20466;-75
2023/01/23 09:35:34;;;;;;;0.50;0.20;;;3.60;99.90;;;;;;4930132;29;20457;-75
2023/01/23 09:38:06;;;;;;;0.60;0.20;;;3.50;99.90;;;;;;4919647;29;20471;-75
2023/01/23 09:40:37;;;;;;;0.50;0.10;;;3.50;99.90;;;;;;4919937;29;20446;-73
2023/01/23 09:43:20;;;;;;;0.87;0.87;;;3.50;99.90;;;;;;4924427;29;20447;-74
2023/01/23 09:45:58;;;;;;;0.50;0.20;;;3.50;99.90;;;;;;4934718;29;20489;-75
2023/01/23 09:48:30;;;;;;;0.50;0.20;;;3.50;99.90;;;;;;4941274;29;20519;-75
2023/01/23 09:51:04;;;;;;;0.60;0.53;;;3.50;99.90;;;;;;4941770;29;20472;-76
2023/01/23 09:53:37;;;;;;;0.50;0.30;;;3.50;99.90;;;;;;4938464;29;20507;-75
2023/01/23 09:56:15;;;;;;;0.50;0.10;;;3.60;99.90;;;;;;4938970;29;20447;-74
2023/01/23 09:58:50;;;;;;;0.50;0.20;;;3.60;99.90;;;;;;4928395;29;20463;-74
2023/01/23 10:01:18;;;;;;;0.50;0.10;;;3.60;99.90;;;;;;4941533;29;20863;-75
2023/01/23 10:03:46;;;;;;;2.03;1.43;;;3.60;99.90;;;;;;4944706;29;20458;-76
2023/01/23 10:06:24;;;;;;;0.50;0.20;;;3.60;99.90;;;;;;4941683;29;20532;-77
2023/01/23 10:09:22;;;;;;;2.20;1.40;;;3.70;99.90;;;;;;4938557;29;20447;-75
2023/01/23 10:11:59;;;;;;;0.90;0.33;;;3.70;99.90;;;;;;4930770;29;20579;-75
2023/01/23 10:15:01;;;;;;;0.50;0.20;;;3.70;99.90;;;;;;4937738;29;20459;-75
2023/01/23 10:17:37;;;;;;;0.60;0.37;;;3.70;99.90;;;;;;4933993;29;20450;-75
2023/01/23 10:20:29;;;;;;;0.60;0.47;;;3.70;99.90;;;;;;4936752;29;20440;-76
2023/01/23 10:23:10;;;;;;;0.70;0.50;;;3.60;99.90;;;;;;4937661;29;20503;-75
2023/01/23 10:25:40;;;;;;;0.60;0.30;;;3.60;99.90;;;;;;4937208;29;20455;-76
2023/01/23 10:28:26;;;;;;;0.50;0.20;;;3.60;99.90;;;;;;4937404;29;20442;-75
2023/01/23 10:30:59;;;;;;;3.27;3.17;;;3.70;99.90;;;;;;4938219;29;20467;-75
2023/01/23 10:33:36;;;;;;;0.50;0.10;;;3.70;99.90;;;;;;4937459;29;20908;-75
2023/01/23 10:36:11;;;;;;;0.60;0.20;;;3.60;99.90;;;;;;4938145;29;20489;-75
2023/01/23 10:38:49;;;;;;;0.50;0.10;;;3.60;99.90;;;;;;4937454;29;20526;-75
2023/01/23 10:41:18;;;;;;;2.10;0.77;;;3.70;99.90;;;;;;4937291;29;20463;-73
2023/01/23 10:43:52;;;;;;;0.50;0.20;;;3.80;99.90;;;;;;4937435;29;20465;-75
2023/01/23 10:46:23;;;;;;;0.90;0.60;;;3.90;99.90;;;;;;4937919;29;20511;-74
2023/01/23 10:48:52;;;;;;;1.43;1.33;;;3.90;99.90;;;;;;4937387;29;20828;-74
2023/01/23 10:51:32;;;;;;;1.33;1.30;;;3.90;99.90;;;;;;4936996;29;20478;-75
2023/01/23 10:54:10;;;;;;;0.50;0.10;;;3.90;99.90;;;;;;4933941;29;20452;-75
2023/01/23 10:56:57;;;;;;;1.33;0.97;;;3.90;99.90;;;;;;4926340;29;20463;-75
2023/01/23 10:59:37;;;;;;;0.60;0.57;;;3.90;99.90;;;;;;4919653;29;20613;-74
2023/01/23 11:02:26;;;;;;;0.50;0.10;;;4.00;99.90;;;;;;4934968;29;20483;-76
2023/01/23 11:04:54;;;;;;;0.93;0.93;;;4.00;99.90;;;;;;4937043;29;20458;-73
2023/01/23 11:07:24;;;;;;;0.97;0.53;;;4.00;99.90;;;;;;4936993;29;20502;-75
2023/01/23 11:09:56;;;;;;;0.60;0.40;;;4.00;99.90;;;;;;4938585;29;20451;-75
2023/01/23 11:12:25;;;;;;;0.50;0.20;;;4.00;99.90;;;;;;4936708;29;20466;-75
2023/01/23 11:15:13;;;;;;;0.50;0.20;;;4.10;99.90;;;;;;4937904;29;20547;-74
2023/01/23 11:17:43;;;;;;;3.00;1.27;;;4.20;99.90;;;;;;4937929;29;20436;-75
2023/01/23 11:20:20;;;;;;;3.07;2.83;;;4.30;99.90;;;;;;4935886;29;20473;-75
2023/01/23 11:23:01;;;;;;;0.70;0.37;;;4.40;99.90;;;;;;4936529;29;20466;-74
2023/01/23 11:25:33;;;;;;;4.80;1.17;;;4.30;99.90;;;;;;4941155;29;20558;-74
2023/01/23 11:28:03;;;;;;;0.70;0.63;;;4.30;95.70;;;;;;4945828;29;20508;-74
2023/01/23 11:30:39;;;;;;;0.70;0.50;;;4.30;93.60;;;;;;4944391;29;20496;-76
2023/01/23 11:33:18;;;;;;;0.50;0.10;;;4.30;93.20;;;;;;4943430;29;20455;-73
2023/01/23 11:35:57;;;;;;;0.50;0.20;;;4.30;96.40;;;;;;4938475;29;20989;-74
2023/01/23 11:38:28;;;;;;;0.50;0.20;;;4.30;92.80;;;;;;4935993;29;20537;-74
2023/01/23 11:41:00;;;;;;;0.50;0.10;;;4.30;90.50;;;;;;4936456;29;20480;-74
2023/01/23 11:43:28;;;;;;;2.70;1.53;;;4.30;93.80;;;;;;4935926;29;20946;-75
2023/01/23 11:46:19;;;;;;;0.50;0.20;;;4.30;93.90;;;;;;4936360;29;20453;-73
2023/01/23 11:49:00;;;;;;;1.03;0.60;;;4.40;95.40;;;;;;4936436;29;20486;-75
2023/01/23 11:51:33;;;;;;;2.00;1.90;;;;;;;;;;4936639;29;20463;-74
2023/01/23 11:54:15;;;;;;;0.50;0.10;;;4.50;89.60;;;;;;4936853;29;20474;-75
2023/01/23 11:56:56;;;;;;;0.80;0.43;;;4.60;93.70;;;;;;4936580;29;20515;-76
2023/01/23 11:59:46;;;;;;;1.80;1.07;;;4.70;93.30;;;;;;4938800;29;20452;-75
2023/01/23 12:02:43;;;;;;;0.60;0.40;;;4.60;77.70;;;;;;4924420;29;20532;-75
2023/01/23 12:05:52;;;;;;;0.60;0.50;;;4.60;88.50;;;;;;4896087;29;20476;-75
2023/01/23 12:08:39;;;;;;;2.63;1.23;;;4.50;80.30;;;;;;4864184;29;20488;-75
2023/01/23 12:11:15;;;;;;;0.87;0.87;;;4.60;81.60;;;;;;4921351;29;20471;-75
2023/01/23 12:14:00;;;;;;;6.03;2.10;;;4.60;78.00;;;;;;4920995;29;20448;-72
2023/01/23 12:16:44;;;;;;;0.50;0.20;;;4.60;88.00;;;;;;4920826;29;20460;-74
2023/01/23 12:19:26;;;;;;;1.70;1.60;;;4.70;87.90;;;;;;4921260;29;20454;-73
2023/01/23 12:22:01;;;;;;;0.70;0.60;;;4.80;83.80;;;;;;4920960;29;20473;-74
2023/01/23 12:24:48;;;;;;;0.60;0.50;;;4.80;76.60;;;;;;4930434;29;20455;-75
2023/01/23 12:27:28;;;;;;;2.37;0.83;;;4.90;86.30;;;;;;4939220;29;21021;-75
2023/01/23 12:30:12;;;;;;;0.60;0.20;;;4.90;75.10;;;;;;4939542;29;20536;-75
2023/01/23 12:32:58;;;;;;;0.50;0.10;;;4.90;76.00;;;;;;4941253;29;20475;-74
2023/01/23 12:35:33;;;;;;;0.77;0.63;;;5.00;84.30;;;;;;4942537;29;20958;-75
2023/01/23 12:38:23;;;;;;;0.50;0.10;;;5.30;76.90;;;;;;4941819;29;20427;-75
2023/01/23 12:40:55;;;;;;;0.50;0.10;;;5.40;75.90;;;;;;4939133;29;20554;-76
2023/01/23 12:43:33;;;;;;;0.50;0.10;;;5.50;74.00;;;;;;4940149;29;20433;-75
2023/01/23 12:46:07;;;;;;;0.50;0.10;;;5.50;79.60;;;;;;4932557;29;20449;-76
2023/01/23 12:48:39;;;;;;;1.27;0.97;;;5.60;76.40;;;;;;4924838;29;20578;-76
2023/01/23 12:51:12;;;;;;;0.50;0.20;;;5.60;72.70;;;;;;4932811;29;20480;-74
2023/01/23 12:53:44;;;;;;;0.60;0.33;;;5.60;81.30;;;;;;4939790;29;20452;-72
2023/01/23 12:56:15;;;;;;;0.50;0.10;;;5.70;75.80;;;;;;4939100;29;20447;-74
2023/01/23 12:58:54;;;;;;;0.50;0.20;;;5.60;78.30;;;;;;4939867;29;20430;-75
2023/01/23 13:01:46;;;;;;;0.90;0.87;;;5.50;71.10;;;;;;4939073;29;20471;-74
2023/01/23 13:04:31;;;;;;;1.00;0.40;;;5.50;72.70;;;;;;4939125;29;20456;-74
2023/01/23 13:07:10;;;;;;;0.60;0.40;;;5.50;81.30;;;;;;4939144;29;20436;-74
2023/01/23 13:10:05;;;;;;;3.33;3.03;;;5.30;72.10;;;;;;4943453;29;20433;-75
2023/01/23 13:12:34;;;;;;;0.50;0.10;;;5.30;75.10;;;;;;4933655;29;21138;-75
2023/01/23 13:15:28;;;;;;;1.17;0.83;;;5.40;86.40;;;;;;4940951;29;20527;-74
2023/01/23 13:18:23;;;;;;;2.40;1.50;;;5.40;86.50;;;;;;4942129;29;20464;-75
2023/01/23 13:23:44;;;;;;;0.60;0.20;;;5.30;81.40;;;;;;4944064;29;20471;-74
2023/01/23 13:26:28;;;;;;;1.43;1.33;;;5.30;80.00;;;;;;4938230;29;20540;-74
2023/01/23 13:29:02;;;;;;;0.53;0.20;;;5.40;84.10;;;;;;4935838;29;20490;-75
2023/01/23 13:31:40;;;;;;;0.60;0.20;;;5.60;77.40;;;;;;4927096;29;20468;-74
2023/01/23 13:34:40;;;;;;;0.50;0.20;;;5.60;80.40;;;;;;4932992;29;20522;-73
2023/01/23 13:37:44;;;;;;;0.50;0.10;;;5.60;89.20;;;;;;4919270;29;20449;-73
2023/01/23 13:40:15;;;;;;;3.73;1.77;;;5.60;89.80;;;;;;4936266;29;20460;-75
2023/01/23 13:42:44;;;;;;;4.57;4.07;;;5.60;79.10;;;;;;4939296;29;20472;-71
2023/01/23 13:45:25;;;;;;;1.90;1.17;;;5.70;87.30;;;;;;4938912;29;20459;-73
2023/01/23 13:51:40;;;;;;;1.07;0.80;;;5.80;63.60;;;;;;4863220;29;20470;-72
2023/01/23 13:57:26;;;;;;;3.47;2.20;;;5.90;57.30;;;;;;4743065;30;20533;-73
2023/01/23 14:00:16;;;;;;;0.70;0.67;;;5.90;57.30;;;;;;4724027;30;20915;-72
2023/01/23 14:06:10;;;;;;;1.47;0.73;;;5.80;57.20;;;;;;4631121;31;20909;-74
2023/01/23 14:08:54;;;;;;;0.60;0.40;;;5.80;65.50;;;;;;4593158;31;20506;-73
2023/01/23 14:17:55;;;;;;;0.50;0.10;;;5.90;57.30;;;;;;4590604;30;20552;-74
2023/01/23 14:20:41;;;;;;;2.60;2.27;;;6.00;57.40;;;;;;4648307;30;20456;-72
2023/01/23 14:23:18;;;;;;;2.10;1.97;;;6.00;65.40;;;;;;4686121;30;20946;-74
2023/01/23 14:25:48;;;;;;;0.63;0.53;;;6.00;65.10;;;;;;4716045;30;20500;-73
2023/01/23 14:28:17;;;;;;;6.00;2.00;;;6.00;57.40;;;;;;4730503;30;21023;-75
2023/01/23 14:30:56;;;;;;;1.43;1.30;;;6.00;57.10;;;;;;4763742;29;20452;-74
2023/01/23 14:33:25;;;;;;;1.43;1.33;;;6.00;60.50;;;;;;4807102;29;20455;-75
2023/01/23 14:35:55;;;;;;;2.40;1.20;;;5.90;50.40;;;;;;4847269;29;20446;-74
2023/01/23 14:38:31;;;;;;;0.60;0.30;;;5.80;51.40;;;;;;4879124;29;20450;-74
2023/01/23 14:41:04;;;;;;;2.10;1.40;;;5.90;50.00;;;;;;4879163;29;20499;-74
2023/01/23 14:43:35;;;;;;;0.90;0.77;;;5.90;57.30;;;;;;4862520;29;20446;-73
2023/01/23 14:46:06;;;;;;;0.50;0.20;;;5.90;64.60;;;;;;4931263;29;20448;-74
2023/01/23 14:48:38;;;;;;;0.50;0.10;;;5.80;64.30;;;;;;4937334;29;20482;-74
2023/01/23 14:51:14;;;;;;;2.63;1.63;;;5.60;71.60;;;;;;4936703;29;20479;-74
2023/01/23 14:53:54;;;;;;;2.23;2.03;;;5.60;73.30;;;;;;4937011;29;20552;-72
2023/01/23 14:56:27;;;;;;;0.97;0.60;;;5.50;82.50;;;;;;4931171;29;20517;-74
2023/01/23 14:58:58;;;;;;;2.80;1.10;;;5.40;86.00;;;;;;4937521;29;20966;-74
2023/01/23 15:01:27;;;;;;;1.70;0.77;;;5.40;84.30;;;;;;4936761;29;20509;-72
2023/01/23 15:04:00;;;;;;;2.77;1.30;;;5.30;84.50;;;;;;4937816;29;20451;-73
2023/01/23 15:06:30;;;;;;;1.80;0.87;;;5.20;91.30;;;;;;4937606;29;20463;-74
2023/01/23 15:09:13;;;;;;;1.47;0.63;;;5.20;91.50;;;;;;4937470;29;20487;-73
2023/01/23 15:11:43;;;;;;;0.97;0.87;;;5.10;88.10;;;;;;4935106;29;20494;-74
2023/01/23 15:14:25;;;;;;;4.83;3.03;;;5.10;93.30;;;;;;4936987;29;20486;-74
2023/01/23 15:17:01;;;;;;;1.23;0.80;;;5.00;93.00;;;;;;4936673;29;20432;-74
2023/01/23 15:19:30;;;;;;;0.77;0.77;;;5.00;94.40;;;;;;4937964;29;20507;-74
2023/01/23 15:22:16;;;;;;;0.97;0.87;;;5.00;92.10;;;;;;4937390;29;20473;-74
2023/01/23 15:24:44;;;;;;;2.20;1.07;;;5.00;93.20;;;;;;4937439;29;20451;-74
2023/01/23 15:27:31;;;;;;;2.20;0.77;;;5.00;93.30;;;;;;4940053;29;20451;-74
2023/01/23 15:30:28;;;;;;;0.90;0.57;;;5.00;93.30;;;;;;4942181;29;20496;-74
2023/01/23 15:32:57;;;;;;;3.13;1.80;;;;;;;;;;4948547;29;20504;-74
2023/01/23 15:35:27;;;;;;;0.70;0.50;;;5.20;93.30;;;;;;4948197;29;20455;-74
2023/01/23 15:38:03;;;;;;;3.10;1.07;;;5.10;93.30;;;;;;4946926;29;20459;-74
2023/01/23 15:40:35;;;;;;;2.10;0.90;;;5.40;84.80;;;;;;4945385;29;20448;-74
2023/01/23 15:43:09;;;;;;;1.37;0.77;;;5.40;91.10;;;;;;4935581;29;20453;-73
2023/01/23 15:45:37;;;;;;;0.50;0.20;;;5.00;80.30;;;;;;4949938;29;20511;-73
2023/01/23 15:48:06;;;;;;;0.80;0.53;;;4.90;82.50;;;;;;4951810;29;20860;-74
2023/01/23 15:50:35;;;;;;;1.47;1.13;;;4.60;89.80;;;;;;4951555;29;20483;-74
2023/01/23 15:53:03;;;;;;;0.90;0.50;;;4.50;90.00;;;;;;4949759;29;20444;-73
2023/01/23 15:55:31;;;;;;;2.00;0.97;;;4.40;92.00;;;;;;4933478;29;20456;-74
2023/01/23 15:57:59;;;;;;;0.67;0.43;;;4.40;92.90;;;;;;4951519;29;20558;-74
2023/01/23 16:00:31;;;;;;;1.13;0.93;;;4.30;93.00;;;;;;4949513;29;20435;-73
2023/01/23 16:02:59;;;;;;;1.10;0.80;;;4.20;93.70;;;;;;4944483;29;20526;-74
2023/01/23 16:05:31;;;;;;;1.20;1.10;;;4.20;97.60;;;;;;4946472;29;20455;-74
2023/01/23 16:08:01;;;;;;;0.50;0.10;;;4.10;94.80;;;;;;4940517;29;20444;-75
2023/01/23 16:10:32;;;;;;;0.50;0.10;;;4.00;96.20;;;;;;4951886;29;20487;-74
2023/01/23 16:13:00;;;;;;;0.60;0.50;;;4.00;96.20;;;;;;4946461;29;20532;-73
2023/01/23 16:15:31;;;;;;;0.63;0.43;;;4.00;97.20;;;;;;4953684;29;20453;-73
2023/01/23 16:18:03;;;;;;;4.30;1.40;;;4.00;97.50;;;;;;4945579;29;20233;-72
2023/01/23 16:20:34;;;;;;;2.07;1.97;;;3.90;97.50;;;;;;4932719;29;20457;-73
2023/01/23 16:23:06;;;;;;;1.90;1.80;;;3.90;97.50;;;;;;4948551;29;20471;-73
2023/01/23 16:25:42;;;;;;;0.50;0.20;;;3.90;98.30;;;;;;4948872;29;20457;-73
2023/01/23 16:28:13;;;;;;;1.63;0.57;;;3.90;99.20;;;;;;4950155;29;20439;-73
2023/01/23 16:30:43;;;;;;;0.60;0.33;;;3.90;99.40;;;;;;4951016;29;20565;-73
2023/01/23 16:33:11;;;;;;;0.50;0.10;;;3.90;99.50;;;;;;4947262;29;20519;-73
2023/01/23 16:35:40;;;;;;;0.50;0.10;;;3.80;99.90;;;;;;4949109;29;20490;-73
2023/01/23 16:38:18;;;;;;;0.50;0.10;;;3.80;99.90;;;;;;4949559;29;20478;-72
2023/01/23 16:40:46;;;;;;;3.50;3.30;;;3.70;99.90;;;;;;4941494;29;20451;-73
2023/01/23 16:43:14;;;;;;;0.70;0.50;;;3.70;99.90;;;;;;4948358;29;20444;-73
2023/01/23 16:45:43;;;;;;;3.57;0.67;;;3.70;99.90;;;;;;4946135;29;20470;-72
2023/01/23 16:48:11;;;;;;;0.50;0.20;;;3.60;99.90;;;;;;4939516;29;20463;-73
2023/01/23 16:50:55;;;;;;;0.53;0.30;;;3.60;99.90;;;;;;4939945;29;20487;-73
2023/01/23 16:53:25;;;;;;;0.50;0.10;;;3.50;99.90;;;;;;4937013;29;20497;-72
2023/01/23 16:55:55;;;;;;;0.50;0.10;;;3.60;99.90;;;;;;4927559;29;20472;-72
2023/01/23 16:58:26;;;;;;;0.93;0.87;;;3.60;99.90;;;;;;4952443;29;20448;-72
2023/01/23 17:01:00;;;;;;;0.70;0.37;;;3.60;99.90;;;;;;4948053;29;20479;-73
2023/01/23 17:03:32;;;;;;;0.70;0.40;;;3.60;99.90;;;;;;4942823;29;20443;-73
2023/01/23 17:06:00;;;;;;;0.60;0.40;;;3.60;99.90;;;;;;4941534;29;20959;-73
2023/01/23 17:08:28;;;;;;;0.60;0.40;;;3.60;99.90;;;;;;4938027;29;20872;-74
2023/01/23 17:10:59;;;;;;;0.60;0.43;;;3.60;99.90;;;;;;4939220;29;20500;-75
2023/01/23 17:13:32;;;;;;;0.80;0.50;;;3.60;99.90;;;;;;4940882;29;20448;-74
2023/01/23 17:16:03;;;;;;;0.50;0.10;;;3.50;99.90;;;;;;4944489;29;20501;-75
2023/01/23 17:18:37;;;;;;;1.97;1.83;;;3.60;99.90;;;;;;4942515;29;20452;-74
2023/01/23 17:21:05;;;;;;;3.90;3.70;;;3.50;99.90;;;;;;4940935;29;20872;-74
2023/01/23 17:23:34;;;;;;;0.50;0.17;;;3.50;99.90;;;;;;4942300;29;20503;-74
2023/01/23 17:26:02;;;;;;;0.50;0.20;;;3.50;99.90;;;;;;4941835;29;20830;-74
2023/01/23 17:28:30;;;;;;;2.10;1.90;;;3.50;99.90;;;;;;4940986;29;20844;-73
2023/01/23 17:31:00;;;;;;;1.57;1.27;;;3.50;99.90;;;;;;4941147;29;20497;-73
2023/01/23 17:33:31;;;;;;;4.00;1.27;;;3.50;99.90;;;;;;4941514;29;20456;-73
2023/01/23 17:36:02;;;;;;;0.97;0.87;;;3.50;99.90;;;;;;4940662;29;20446;-73
2023/01/23 17:38:30;;;;;;;0.90;0.40;;;3.50;99.90;;;;;;4941412;29;20459;-73
2023/01/23 17:40:58;;;;;;;3.27;3.07;;;3.50;99.90;;;;;;4939529;29;20471;-72
2023/01/23 17:43:26;;;;;;;1.70;1.60;;;3.50;99.90;;;;;;4940174;29;20490;-75
2023/01/23 17:45:54;;;;;;;0.50;0.30;;;3.40;99.90;;;;;;4936746;29;20475;-75
2023/01/23 17:48:27;;;;;;;0.70;0.50;;;3.40;99.90;;;;;;4940206;29;20546;-74